Time;durP1;ratioP1;P1;durP2;ratioP2;P2;SDS_P1;SDS_P2;PMS_P1;PMS_P2;Temp;Humidity;BMP_temperature;BMP_pressure;BME280_temperature;BME280_humidity;BME280_pressure;Samples;Min_cycle;Max_cycle;Signal;HPM_P1;HPM_P2
2022/12/29 00:01:33;;;;;;;;;4.00;4.00;;;;;24.31;39.42;100359.75;4965997;28;45649;-76
2022/12/29 00:03:58;;;;;;;;;4.00;4.00;;;;;24.26;39.90;100345.06;4952501;28;45443;-77
2022/12/29 00:06:24;;;;;;;;;4.33;4.33;;;;;24.28;39.58;100362.84;4972577;28;45645;-76
2022/12/29 00:08:50;;;;;;;;;2.67;1.00;;;;;24.27;39.68;100361.16;4971968;28;45400;-76
2022/12/29 00:11:22;;;;;;;;;3.67;3.67;;;;;24.26;39.59;100355.91;4971347;28;45437;-76
2022/12/29 00:16:32;;;;;;;;;6.00;4.33;;;;;24.25;39.45;100356.94;4985925;28;45581;-76
2022/12/29 00:18:58;;;;;;;;;4.33;3.00;;;;;24.24;39.46;100344.41;4993852;27;48517;-77
2022/12/29 00:35:28;;;;;;;;;3.67;3.67;;;;;24.18;39.73;100322.44;5018295;28;45655;-76
2022/12/29 00:46:09;;;;;;;;;4.00;4.00;;;;;24.13;39.75;100303.16;4971825;28;45430;-76
2022/12/29 00:51:18;;;;;;;;;3.00;3.00;;;;;24.14;39.58;100295.84;4964365;28;45818;-77
2022/12/29 00:53:43;;;;;;;;;5.00;4.33;;;;;24.14;39.58;100302.13;4969449;28;45305;-77
2022/12/29 00:56:09;;;;;;;;;3.67;2.67;;;;;24.15;39.57;100311.13;4970912;28;45400;-77
2022/12/29 00:58:34;;;;;;;;;4.00;2.00;;;;;24.13;39.55;100308.59;4964169;28;45399;-77
2022/12/29 01:01:04;;;;;;;;;3.00;3.00;;;;;24.14;39.38;100303.97;4976327;28;46280;-77
2022/12/29 01:03:30;;;;;;;;;2.67;2.00;;;;;24.12;39.55;100298.78;4969893;28;46247;-77
2022/12/29 01:05:55;;;;;;;;;3.00;3.00;;;;;24.10;39.31;100303.50;4973412;28;45486;-77
2022/12/29 01:08:21;;;;;;;;;3.00;3.00;;;;;24.11;39.33;100296.22;4971134;28;45431;-77
2022/12/29 01:10:46;;;;;;;;;3.00;3.00;;;;;24.11;39.47;100288.94;4973280;28;54523;-77
2022/12/29 01:13:11;;;;;;;;;3.00;3.00;;;;;24.11;39.66;100304.38;4973477;28;45648;-77
2022/12/29 01:15:36;;;;;;;;;2.67;2.67;;;;;24.10;39.53;100294.56;5025041;28;45486;-77
2022/12/29 01:18:02;;;;;;;;;4.00;2.67;;;;;24.07;39.54;100283.00;4983448;28;45880;-77
2022/12/29 01:20:28;;;;;;;;;2.33;2.33;;;;;24.09;39.47;100285.56;4973102;28;45699;-77
2022/12/29 01:22:53;;;;;;;;;2.00;2.00;;;;;24.08;39.43;100279.25;4973927;28;45957;-77
2022/12/29 01:25:19;;;;;;;;;2.33;2.33;;;;;24.08;39.39;100289.28;4987906;28;45515;-77
2022/12/29 01:27:44;;;;;;;;;3.00;3.00;;;;;24.06;39.59;100272.34;4968271;28;45448;-76
2022/12/29 01:30:10;;;;;;;;;2.67;1.00;;;;;24.06;39.41;100275.03;4978790;28;46312;-76
2022/12/29 01:32:35;;;;;;;;;2.67;2.67;;;;;24.05;39.51;100295.06;4961632;28;45396;-76
2022/12/29 01:35:01;;;;;;;;;4.00;3.00;;;;;24.06;39.57;100285.91;4970750;28;45518;-76
2022/12/29 01:37:26;;;;;;;;;2.33;2.33;;;;;24.05;39.47;100279.66;4986162;28;45462;-76
2022/12/29 01:39:51;;;;;;;;;1.00;1.00;;;;;24.05;39.32;100293.19;4984022;28;46203;-75
2022/12/29 01:42:19;;;;;;;;;2.33;2.33;;;;;24.05;39.59;100293.19;4972226;28;46113;-75
2022/12/29 01:44:49;;;;;;;;;1.00;1.00;;;;;24.05;39.44;100300.47;4972797;28;45457;-76
2022/12/29 01:47:23;;;;;;;;;1.00;1.00;;;;;24.05;39.48;100293.19;4974444;28;45468;-76
2022/12/29 01:49:48;;;;;;;;;3.00;1.00;;;;;24.05;39.44;100316.75;5015943;28;45418;-76
2022/12/29 01:52:14;;;;;;;;;1.33;1.33;;;;;24.05;39.44;100308.59;4978547;27;45473;-76
2022/12/29 01:54:45;;;;;;;;;2.00;2.00;;;;;24.04;39.56;100321.31;4980943;28;45405;-76
2022/12/29 01:57:17;;;;;;;;;1.33;1.33;;;;;24.05;39.46;100327.59;4981309;28;45542;-76
2022/12/29 01:59:52;;;;;;;;;2.00;2.00;;;;;24.05;39.41;100330.31;5006069;28;45419;-76
2022/12/29 02:02:17;;;;;;;;;2.00;2.00;;;;;24.02;39.22;100323.38;4974062;27;45474;-76
2022/12/29 02:04:46;;;;;;;;;2.00;2.00;;;;;24.02;39.49;100325.22;4984398;28;45462;-76
2022/12/29 02:07:18;;;;;;;;;2.67;1.00;;;;;23.99;39.26;100322.91;4972993;28;45384;-76
2022/12/29 02:09:47;;;;;;;;;1.33;1.33;;;;;23.99;39.19;100317.47;4972629;28;45465;-76
2022/12/29 02:12:13;;;;;;;;;2.00;2.00;;;;;23.96;39.11;100310.56;4981419;28;46158;-75
2022/12/29 02:14:38;;;;;;;;;1.67;1.67;;;;;23.98;39.31;100313.09;4976205;28;45594;-75
2022/12/29 02:17:27;;;;;;;;;1.00;1.00;;;;;23.97;39.48;100312.25;4966062;28;45732;-76
2022/12/29 02:20:20;;;;;;;;;1.00;1.00;;;;;23.97;39.20;100301.41;4999619;28;46346;-75
2022/12/29 02:23:08;;;;;;;;;1.00;1.00;;;;;23.96;39.32;100294.28;4953523;28;45527;-76
2022/12/29 02:25:52;;;;;;;;;1.00;1.00;;;;;23.95;39.26;100282.59;4927205;28;45466;-76
2022/12/29 02:28:36;;;;;;;;;3.00;1.00;;;;;23.94;39.11;100288.19;4912728;28;45941;-77
2022/12/29 02:31:06;;;;;;;;;4.33;3.00;;;;;23.93;39.79;100286.53;4928139;28;46295;-76
2022/12/29 02:33:50;;;;;;;;;1.00;1.00;;;;;23.92;39.50;100288.38;4930095;28;45473;-76
2022/12/29 02:36:45;;;;;;;;;1.00;1.00;;;;;23.91;39.37;100280.44;4931289;28;45571;-77
2022/12/29 02:39:13;;;;;;;;;1.00;1.00;;;;;23.92;39.45;100292.97;4930967;28;45588;-77
2022/12/29 02:41:54;;;;;;;;;0.33;0.33;;;;;23.92;39.34;100288.38;4929393;28;46837;-77
2022/12/29 02:44:44;;;;;;;;;2.00;2.00;;;;;23.94;39.43;100294.47;4931015;28;45516;-76
2022/12/29 02:47:16;;;;;;;;;1.33;1.33;;;;;23.94;39.34;100280.91;4931522;28;45386;-77
2022/12/29 02:49:53;;;;;;;;;1.67;1.00;;;;;23.93;39.36;100281.09;4930598;28;45442;-77
2022/12/29 02:52:52;;;;;;;;;1.00;1.00;;;;;23.95;39.18;100301.56;4931691;28;45512;-77
2022/12/29 02:55:18;;;;;;;;;3.00;1.00;;;;;23.93;39.38;100313.63;4963827;28;45513;-77
2022/12/29 02:57:43;;;;;;;;;2.67;1.33;;;;;23.92;39.30;100344.47;4972561;28;45591;-77
2022/12/29 03:00:13;;;;;;;;;1.00;1.00;;;;;23.92;39.29;100345.28;4972876;28;45513;-77
2022/12/29 03:03:06;;;;;;;;;0.67;0.67;;;;;23.92;39.17;100339.88;4938884;28;48264;-77
2022/12/29 03:05:57;;;;;;;;;0.00;0.00;;;;;23.89;38.99;100337.53;4917909;28;45543;-76
2022/12/29 03:08:52;;;;;;;;;0.33;0.33;;;;;23.89;39.37;100328.56;4916886;28;45753;-76
2022/12/29 03:17:39;;;;;;;;;0.00;0.00;;;;;23.87;39.59;100341.47;4922147;28;45509;-76
2022/12/29 03:20:09;;;;;;;;;0.33;0.33;;;;;23.86;39.14;100345.19;4911237;28;45568;-76
2022/12/29 03:22:43;;;;;;;;;1.33;1.33;;;;;23.85;39.26;100343.50;4932768;28;45449;-77
2022/12/29 03:25:14;;;;;;;;;1.00;1.00;;;;;23.84;39.22;100329.13;4932505;28;45741;-76
2022/12/29 03:27:55;;;;;;;;;0.00;0.00;;;;;23.81;39.43;100327.59;4933664;28;45547;-76
2022/12/29 03:30:21;;;;;;;;;1.00;1.00;;;;;23.81;38.97;100329.47;4932558;28;45415;-76
2022/12/29 03:32:50;;;;;;;;;0.33;0.00;;;;;23.81;39.40;100327.59;4963943;28;46165;-76
2022/12/29 03:35:19;;;;;;;;;1.00;1.00;;;;;23.80;39.42;100331.31;4971874;28;45489;-76
2022/12/29 03:37:51;;;;;;;;;0.00;0.00;;;;;23.79;39.26;100324.22;4971925;28;45312;-77
2022/12/29 03:40:21;;;;;;;;;2.00;1.00;;;;;23.80;39.27;100344.03;4971592;28;45648;-76
2022/12/29 03:42:47;;;;;;;;;1.00;1.00;;;;;23.79;39.41;100343.19;4971583;28;45744;-76
2022/12/29 03:45:13;;;;;;;;;0.67;0.00;;;;;23.80;39.01;100346.75;5009402;28;46477;-76
2022/12/29 03:47:39;;;;;;;;;0.00;0.00;;;;;23.80;39.38;100344.03;4989613;27;45577;-76
2022/12/29 03:50:05;;;;;;;;;1.67;1.00;;;;;23.80;39.36;100350.28;4970654;28;45807;-76
2022/12/29 03:52:30;;;;;;;;;0.00;0.00;;;;;23.81;39.24;100343.00;4976335;28;45433;-76
2022/12/29 03:54:55;;;;;;;;;1.00;1.00;;;;;23.78;39.36;100351.50;4971709;28;50765;-76
2022/12/29 03:57:21;;;;;;;;;1.00;1.00;;;;;23.80;39.21;100355.72;4980879;28;45479;-76
2022/12/29 03:59:46;;;;;;;;;0.00;0.00;;;;;23.80;39.22;100354.88;4970904;28;45512;-77
2022/12/29 04:02:11;;;;;;;;;1.00;1.00;;;;;23.80;39.08;100358.41;4974602;28;47104;-77
2022/12/29 04:04:37;;;;;;;;;0.00;0.00;;;;;23.81;39.07;100359.28;4973912;28;50402;-76
2022/12/29 04:07:02;;;;;;;;;0.67;0.67;;;;;23.76;38.95;100354.41;4974457;28;45407;-76
2022/12/29 04:09:27;;;;;;;;;0.00;0.00;;;;;23.81;39.39;100356.56;4987874;28;45843;-76
2022/12/29 04:11:53;;;;;;;;;0.00;0.00;;;;;23.80;39.10;100366.53;4974484;28;45371;-76
2022/12/29 04:14:18;;;;;;;;;0.00;0.00;;;;;23.82;39.28;100375.34;4973121;28;49991;-76
2022/12/29 04:16:43;;;;;;;;;0.00;0.00;;;;;23.86;38.96;100358.75;4983823;28;45377;-76
2022/12/29 04:19:09;;;;;;;;;0.67;0.67;;;;;23.91;39.37;100342.78;4974225;28;45478;-77
2022/12/29 04:21:34;;;;;;;;;0.00;0.00;;;;;23.95;39.28;100349.53;4973258;28;45403;-76
2022/12/29 04:23:59;;;;;;;;;0.00;0.00;;;;;23.98;39.13;100356.47;4973192;28;48893;-76
2022/12/29 04:26:25;;;;;;;;;0.00;0.00;;;;;23.99;39.21;100356.25;4973904;28;45478;-76
2022/12/29 04:28:50;;;;;;;;;0.00;0.00;;;;;24.02;39.12;100371.31;4974524;28;45708;-77
2022/12/29 04:31:16;;;;;;;;;0.00;0.00;;;;;24.02;39.01;100379.44;4969755;28;45654;-77
2022/12/29 04:33:41;;;;;;;;;0.67;0.00;;;;;24.05;38.98;100376.38;4972186;28;45719;-76
2022/12/29 04:36:06;;;;;;;;;0.00;0.00;;;;;24.05;39.14;100376.38;4973965;28;45509;-75
2022/12/29 04:38:32;;;;;;;;;0.00;0.00;;;;;24.07;39.26;100377.88;4967787;28;45506;-76
2022/12/29 04:41:02;;;;;;;;;0.67;0.67;;;;;24.10;39.09;100376.72;4973629;28;45297;-75
2022/12/29 04:43:27;;;;;;;;;0.67;0.00;;;;;24.13;38.97;100370.09;4976105;28;45820;-76
2022/12/29 04:45:53;;;;;;;;;0.00;0.00;;;;;24.15;39.14;100384.31;4986818;28;45503;-75
2022/12/29 04:48:19;;;;;;;;;0.00;0.00;;;;;24.16;38.85;100383.28;4972645;28;45454;-75
2022/12/29 04:50:47;;;;;;;;;0.00;0.00;;;;;24.19;39.10;100382.91;5043175;28;45464;-76
2022/12/29 04:53:13;;;;;;;;;0.00;0.00;;;;;24.21;39.02;100389.81;5028936;27;46285;-76
2022/12/29 04:55:38;;;;;;;;;0.33;0.33;;;;;24.24;39.03;100374.25;4975844;28;45825;-76
2022/12/29 04:58:03;;;;;;;;;1.00;1.00;;;;;24.24;38.83;100380.53;4974074;28;47517;-76
2022/12/29 05:00:29;;;;;;;;;0.00;0.00;;;;;24.25;38.98;100384.06;4974196;28;45423;-76
2022/12/29 05:02:54;;;;;;;;;0.00;0.00;;;;;24.27;39.13;100387.44;4969536;28;45553;-76
2022/12/29 05:05:19;;;;;;;;;0.00;0.00;;;;;24.29;39.12;100390.81;4962530;28;45693;-76
2022/12/29 05:07:45;;;;;;;;;0.00;0.00;;;;;24.30;38.73;100392.50;4966070;28;45523;-76
2022/12/29 05:10:11;;;;;;;;;1.00;0.00;;;;;24.30;38.94;100390.63;4970356;28;45467;-76
2022/12/29 05:12:37;;;;;;;;;0.00;0.00;;;;;24.32;38.99;100406.72;4974019;28;45377;-76
2022/12/29 05:15:04;;;;;;;;;0.33;0.00;;;;;24.33;38.85;100408.41;5017805;28;45346;-77
2022/12/29 05:17:29;;;;;;;;;0.00;0.00;;;;;24.35;38.85;100414.47;5059586;28;45385;-76
2022/12/29 05:19:55;;;;;;;;;0.00;0.00;;;;;24.36;38.84;100423.47;4986147;28;45478;-76
2022/12/29 05:22:20;;;;;;;;;0.00;0.00;;;;;24.36;38.92;100428.88;4971548;28;49677;-76
2022/12/29 05:24:46;;;;;;;;;0.00;0.00;;;;;24.37;39.00;100444.13;4967573;28;45470;-76
2022/12/29 05:27:11;;;;;;;;;0.00;0.00;;;;;24.36;38.86;100446.00;4976350;28;45520;-76
2022/12/29 05:29:36;;;;;;;;;0.00;0.00;;;;;24.36;38.83;100451.41;5047680;28;46783;-76
2022/12/29 05:32:02;;;;;;;;;0.00;0.00;;;;;24.37;38.86;100457.69;5076148;27;45428;-76
2022/12/29 05:34:27;;;;;;;;;0.00;0.00;;;;;24.36;38.94;100445.16;4974732;27;45404;-76
2022/12/29 05:36:52;;;;;;;;;0.00;0.00;;;;;24.35;38.87;100455.16;4980591;28;45573;-76
2022/12/29 05:39:18;;;;;;;;;0.00;0.00;;;;;24.36;38.84;100458.72;4967884;28;45409;-76
2022/12/29 05:41:43;;;;;;;;;1.00;1.00;;;;;24.36;38.87;100456.00;5007883;28;46808;-76
2022/12/29 05:44:10;;;;;;;;;0.00;0.00;;;;;24.36;38.95;100450.59;4973671;28;45454;-76
2022/12/29 05:46:35;;;;;;;;;0.00;0.00;;;;;24.37;38.60;100450.41;4974023;28;45464;-76
2022/12/29 05:49:01;;;;;;;;;0.00;0.00;;;;;24.39;38.80;100455.66;4974619;28;46779;-76
2022/12/29 05:51:26;;;;;;;;;0.00;0.00;;;;;24.38;38.74;100459.38;4985031;28;45930;-76
2022/12/29 05:53:51;;;;;;;;;0.00;0.00;;;;;24.38;38.75;100462.94;4965728;28;46052;-76
2022/12/29 05:56:17;;;;;;;;;0.00;0.00;;;;;24.39;38.80;100470.06;5015346;28;45487;-76
2022/12/29 05:58:42;;;;;;;;;0.00;0.00;;;;;24.39;38.55;100471.94;4981507;28;45441;-76
2022/12/29 06:01:07;;;;;;;;;0.00;0.00;;;;;24.38;38.75;100471.09;4969718;28;50433;-76
2022/12/29 06:03:33;;;;;;;;;0.00;0.00;;;;;24.38;38.71;100465.66;4960450;28;45672;-76
2022/12/29 06:05:58;;;;;;;;;0.00;0.00;;;;;24.37;38.81;100472.13;4976337;28;45728;-76
2022/12/29 06:08:23;;;;;;;;;0.00;0.00;;;;;24.32;38.78;100478.06;4975472;28;45362;-76
2022/12/29 06:10:49;;;;;;;;;0.00;0.00;;;;;24.31;38.85;100481.81;4984274;28;46188;-76
2022/12/29 06:13:15;;;;;;;;;0.00;0.00;;;;;24.35;38.64;100474.16;4968357;28;45605;-76
2022/12/29 06:15:40;;;;;;;;;1.33;0.00;;;;;24.31;38.48;100476.38;4972286;28;45511;-75
2022/12/29 06:18:06;;;;;;;;;0.00;0.00;;;;;24.35;38.67;100485.00;4972659;28;45634;-75
2022/12/29 06:20:31;;;;;;;;;1.00;0.00;;;;;24.34;38.74;100489.59;4994350;28;46206;-75
2022/12/29 06:22:56;;;;;;;;;0.00;0.00;;;;;24.33;38.64;100482.44;4972398;28;45767;-75
2022/12/29 06:25:22;;;;;;;;;0.00;0.00;;;;;24.32;38.41;100485.38;4972351;28;45462;-75
2022/12/29 06:27:48;;;;;;;;;0.00;0.00;;;;;24.32;38.77;100496.22;4972416;28;45529;-75
2022/12/29 06:30:14;;;;;;;;;0.00;0.00;;;;;24.32;38.89;100486.19;4986836;28;45542;-75
2022/12/29 06:32:39;;;;;;;;;1.33;0.00;;;;;24.29;38.92;100486.56;4960342;28;45508;-75
2022/12/29 06:35:06;;;;;;;;;0.00;0.00;;;;;24.30;38.41;100498.25;4991642;28;45521;-76
2022/12/29 06:37:31;;;;;;;;;0.00;0.00;;;;;24.28;38.67;100503.84;4972740;28;45926;-75
2022/12/29 06:39:57;;;;;;;;;1.00;0.00;;;;;24.29;38.55;100519.13;4970564;28;47434;-75
2022/12/29 06:42:22;;;;;;;;;0.67;0.00;;;;;24.28;38.88;100522.00;4972439;28;45355;-76
2022/12/29 06:44:48;;;;;;;;;0.00;0.00;;;;;24.29;38.73;100529.13;4971626;28;45426;-76
2022/12/29 06:47:13;;;;;;;;;1.00;0.00;;;;;24.29;38.63;100526.41;4972188;28;45585;-76
2022/12/29 06:49:38;;;;;;;;;0.00;0.00;;;;;24.29;38.72;100529.13;4972247;28;51596;-76
2022/12/29 06:52:04;;;;;;;;;0.00;0.00;;;;;24.27;38.83;100532.00;4971563;28;45438;-75
2022/12/29 06:54:30;;;;;;;;;0.00;0.00;;;;;24.29;38.80;100540.81;4973148;28;45364;-76
2022/12/29 06:56:56;;;;;;;;;0.00;0.00;;;;;24.27;38.34;100548.28;4976878;27;45380;-75
2022/12/29 06:59:21;;;;;;;;;0.00;0.00;;;;;24.28;38.50;100551.84;4972258;28;46677;-76
2022/12/29 07:01:47;;;;;;;;;1.00;0.67;;;;;24.25;38.82;100544.06;4971886;28;45574;-76
2022/12/29 07:04:12;;;;;;;;;0.00;0.00;;;;;24.26;38.57;100551.16;4970734;28;45511;-77
2022/12/29 07:06:37;;;;;;;;;0.00;0.00;;;;;24.25;38.69;100558.47;4989915;28;45533;-76
2022/12/29 07:09:04;;;;;;;;;0.00;0.00;;;;;24.25;38.75;100568.47;4974768;28;45570;-76
2022/12/29 07:11:29;;;;;;;;;0.00;0.00;;;;;24.24;38.72;100566.78;4997357;28;45587;-76
2022/12/29 07:13:55;;;;;;;;;0.00;0.00;;;;;24.26;38.71;100571.00;4961330;28;45460;-75
2022/12/29 07:16:20;;;;;;;;;1.00;0.00;;;;;24.26;38.71;100579.13;4971193;28;45640;-76
2022/12/29 07:18:45;;;;;;;;;0.00;0.00;;;;;24.27;38.65;100569.97;4964931;28;46278;-72
2022/12/29 07:21:11;;;;;;;;;0.00;0.00;;;;;24.26;38.86;100576.41;4964669;28;45877;-72
2022/12/29 07:23:37;;;;;;;;;0.00;0.00;;;;;24.28;38.89;100568.94;4971121;28;45383;-72
2022/12/29 07:26:09;;;;;;;;;0.00;0.00;;;;;24.31;38.69;100586.72;4981035;28;45642;-72
2022/12/29 07:28:35;;;;;;;;;0.00;0.00;;;;;24.29;38.59;100575.22;4987124;28;46871;-72
2022/12/29 07:31:01;;;;;;;;;0.00;0.00;;;;;24.30;38.64;100579.63;4971020;28;45567;-72
2022/12/29 07:33:30;;;;;;;;;0.00;0.00;;;;;24.32;38.80;100572.16;4985479;28;45460;-72
2022/12/29 07:35:57;;;;;;;;;0.33;0.33;;;;;24.34;38.61;100568.25;5010522;28;45498;-71
2022/12/29 07:38:23;;;;;;;;;1.00;0.00;;;;;24.32;38.80;100558.59;4969985;28;46979;-72
2022/12/29 07:40:48;;;;;;;;;0.67;0.00;;;;;24.40;38.51;100571.28;4965180;28;45640;-72
2022/12/29 07:43:14;;;;;;;;;0.00;0.00;;;;;24.39;38.67;100562.28;4968952;28;45565;-72
2022/12/29 07:45:39;;;;;;;;;1.00;1.00;;;;;24.48;38.62;100577.47;5026546;28;45732;-73
2022/12/29 07:48:07;;;;;;;;;0.00;0.00;;;;;24.53;38.68;100581.53;4999411;27;46442;-72
2022/12/29 07:50:33;;;;;;;;;0.00;0.00;;;;;24.56;38.47;100584.72;4971226;28;45819;-72
2022/12/29 07:52:59;;;;;;;;;0.00;0.00;;;;;24.57;38.44;100577.44;4971386;28;45671;-72
2022/12/29 07:55:24;;;;;;;;;0.00;0.00;;;;;24.60;38.63;100590.63;4968010;28;45549;-72
2022/12/29 07:57:52;;;;;;;;;0.00;0.00;;;;;24.60;38.31;100599.63;4969060;28;47017;-72
2022/12/29 08:00:17;;;;;;;;;0.00;0.00;;;;;24.56;38.48;100592.03;4972098;28;45548;-73
2022/12/29 08:02:42;;;;;;;;;0.00;0.00;;;;;24.57;38.11;100599.97;4970913;28;45434;-72
2022/12/29 08:05:08;;;;;;;;;0.00;0.00;;;;;24.54;38.42;100599.47;4966837;28;49812;-73
2022/12/29 08:07:33;;;;;;;;;0.00;0.00;;;;;24.51;38.42;100616.97;4970324;28;46299;-73
2022/12/29 08:09:58;;;;;;;;;0.00;0.00;;;;;24.47;38.26;100612.91;4970078;28;45861;-72
2022/12/29 08:12:24;;;;;;;;;0.00;0.00;;;;;24.47;38.47;100621.06;4970459;28;45400;-72
2022/12/29 08:14:49;;;;;;;;;0.00;0.00;;;;;24.50;38.46;100609.84;4970863;28;45900;-72
2022/12/29 08:17:14;;;;;;;;;0.67;0.00;;;;;24.52;38.28;100625.97;4985096;28;52823;-72
2022/12/29 08:19:41;;;;;;;;;0.00;0.00;;;;;24.59;38.46;100630.50;4997167;28;45511;-72
2022/12/29 08:22:06;;;;;;;;;0.00;0.00;;;;;24.65;38.67;100628.94;4960364;28;45492;-72
2022/12/29 08:24:31;;;;;;;;;0.00;0.00;;;;;24.65;38.29;100623.53;4966349;28;45523;-72
2022/12/29 08:26:57;;;;;;;;;0.00;0.00;;;;;24.82;38.41;100642.41;4987279;28;48344;-72
2022/12/29 08:29:22;;;;;;;;;0.00;0.00;;;;;24.88;38.84;100641.69;4955957;28;45537;-72
2022/12/29 08:31:47;;;;;;;;;0.00;0.00;;;;;24.95;38.64;100658.13;4966809;28;45531;-73
2022/12/29 08:34:13;;;;;;;;;0.00;0.00;;;;;24.98;38.78;100646.91;4965973;28;45435;-72
2022/12/29 08:36:39;;;;;;;;;0.00;0.00;;;;;25.05;38.47;100653.28;4971274;28;45456;-72
2022/12/29 08:39:04;;;;;;;;;0.00;0.00;;;;;25.15;38.74;100660.34;4972615;28;45856;-72
2022/12/29 08:41:29;;;;;;;;;0.00;0.00;;;;;25.18;38.52;100655.38;4972110;28;45810;-72
2022/12/29 08:43:55;;;;;;;;;0.00;0.00;;;;;25.23;38.43;100665.72;4964559;28;45491;-72
2022/12/29 08:46:20;;;;;;;;;0.00;0.00;;;;;25.18;38.43;100643.69;4973602;28;45320;-73
2022/12/29 08:48:45;;;;;;;;;0.00;0.00;;;;;25.27;38.46;100667.06;4970775;28;45255;-72
2022/12/29 08:51:11;;;;;;;;;0.00;0.00;;;;;25.29;38.81;100666.88;4971633;28;45530;-71
2022/12/29 08:53:36;;;;;;;;;0.00;0.00;;;;;25.29;38.63;100665.00;4971387;28;45445;-71
2022/12/29 08:56:02;;;;;;;;;0.00;0.00;;;;;25.34;38.63;100676.16;4968349;28;45516;-72
2022/12/29 08:58:28;;;;;;;;;0.00;0.00;;;;;25.37;38.58;100669.50;4969313;28;46006;-72
2022/12/29 09:00:54;;;;;;;;;0.00;0.00;;;;;25.36;38.39;100668.69;4969315;28;45495;-72
2022/12/29 09:03:20;;;;;;;;;1.00;0.00;;;;;25.42;38.55;100674.41;4980077;28;46012;-72
2022/12/29 09:05:54;;;;;;;;;0.00;0.00;;;;;25.39;38.68;100667.47;4978280;28;45526;-72
2022/12/29 09:08:20;;;;;;;;;0.00;0.00;;;;;25.45;38.46;100682.16;5030561;28;45497;-72
2022/12/29 09:10:46;;;;;;;;;0.00;0.00;;;;;25.44;38.35;100681.34;4971724;28;45383;-72
2022/12/29 09:13:13;;;;;;;;;0.00;0.00;;;;;25.48;38.42;100695.41;4961865;28;45491;-70
2022/12/29 09:15:39;;;;;;;;;0.33;0.00;;;;;25.47;38.53;100699.97;4971112;28;46770;-70
2022/12/29 09:18:05;;;;;;;;;1.00;0.00;;;;;25.46;38.75;100706.44;4964682;28;45456;-69
2022/12/29 09:20:30;;;;;;;;;0.33;0.00;;;;;25.48;38.39;100707.13;4962599;28;45448;-70
2022/12/29 09:22:55;;;;;;;;;0.00;0.00;;;;;25.51;38.69;100711.34;4959297;28;45467;-71
2022/12/29 09:25:24;;;;;;;;;0.00;0.00;;;;;25.52;38.43;100715.75;4973845;28;45439;-71
2022/12/29 09:27:50;;;;;;;;;0.00;0.00;;;;;25.53;38.57;100714.72;4966928;28;45666;-70
2022/12/29 09:30:15;;;;;;;;;0.00;0.00;;;;;25.56;38.62;100721.69;4972001;28;45532;-71
2022/12/29 09:32:40;;;;;;;;;0.00;0.00;;;;;25.53;38.82;100721.00;4970586;28;45518;-72
2022/12/29 09:35:06;;;;;;;;;0.00;0.00;;;;;25.58;38.42;100730.53;4973539;28;45916;-72
2022/12/29 09:37:32;;;;;;;;;0.67;0.33;;;;;25.56;38.62;100724.41;4966301;28;45463;-72
2022/12/29 09:39:57;;;;;;;;;0.00;0.00;;;;;25.55;38.48;100728.13;4960005;28;45898;-72
2022/12/29 09:42:34;;;;;;;;;0.00;0.00;;;;;25.60;38.81;100732.03;4964396;28;45722;-72
2022/12/29 09:45:18;;;;;;;;;0.00;0.00;;;;;25.61;38.55;100728.28;4972581;28;46368;-72
2022/12/29 09:47:45;;;;;;;;;0.00;0.00;;;;;25.61;38.63;100730.13;4970212;28;46026;-71
2022/12/29 09:50:10;;;;;;;;;0.00;0.00;;;;;25.62;38.68;100720.94;4990140;28;45521;-71
2022/12/29 09:52:42;;;;;;;;;0.00;0.00;;;;;25.54;38.65;100710.97;4975392;28;45557;-71
2022/12/29 09:55:15;;;;;;;;;0.00;0.00;;;;;25.63;38.76;100734.34;4967773;28;46661;-71
2022/12/29 09:57:58;;;;;;;;;0.00;0.00;;;;;25.67;38.84;100737.56;4955042;28;47235;-72
2022/12/29 10:00:36;;;;;;;;;0.67;0.67;;;;;25.70;38.42;100739.91;4958255;28;45485;-72
2022/12/29 10:03:10;;;;;;;;;0.33;0.00;;;;;25.69;38.60;100745.53;4980922;28;45930;-72
2022/12/29 10:05:52;;;;;;;;;2.67;2.00;;;;;25.65;38.75;100745.06;4956279;27;45503;-72
2022/12/29 10:08:28;;;;;;;;;1.00;0.00;;;;;25.60;38.52;100742.91;4965593;28;45436;-71
2022/12/29 10:11:04;;;;;;;;;2.67;1.33;;;;;25.53;38.22;100737.31;4978985;28;45685;-72
2022/12/29 10:13:36;;;;;;;;;1.00;1.00;;;;;25.48;38.49;100736.16;4965889;28;45745;-72
2022/12/29 10:16:10;;;;;;;;;1.00;1.00;;;;;25.43;38.54;100734.00;4980251;28;46619;-72
2022/12/29 10:18:51;;;;;;;;;2.67;0.67;;;;;25.38;38.44;100750.81;4983182;28;45454;-71
2022/12/29 10:21:31;;;;;;;;;0.00;0.00;;;;;25.30;37.94;100734.56;4960838;28;45636;-72
2022/12/29 10:23:59;;;;;;;;;1.00;0.00;;;;;25.31;38.31;100741.72;4979843;27;45643;-72
2022/12/29 10:26:41;;;;;;;;;0.00;0.00;;;;;25.25;38.51;100734.28;4966618;28;45505;-72
2022/12/29 10:29:18;;;;;;;;;0.00;0.00;;;;;25.26;38.54;100736.00;4963180;28;45797;-73
2022/12/29 10:31:56;;;;;;;;;0.00;0.00;;;;;25.22;38.23;100732.78;4960973;28;45625;-72
2022/12/29 10:34:34;;;;;;;;;0.67;0.67;;;;;25.17;38.52;100731.63;4970196;28;45471;-72
2022/12/29 10:37:22;;;;;;;;;0.00;0.00;;;;;25.15;38.45;100731.81;4962458;28;47331;-72
2022/12/29 10:39:52;;;;;;;;;1.67;0.67;;;;;25.17;38.27;100746.03;4966539;28;45385;-72
2022/12/29 10:42:28;;;;;;;;;0.00;0.00;;;;;25.12;38.35;100727.59;4973939;28;45754;-72
2022/12/29 10:44:55;;;;;;;;;1.33;0.67;;;;;25.18;38.09;100734.16;4971266;28;46751;-72
2022/12/29 10:47:26;;;;;;;;;1.00;0.00;;;;;25.17;38.26;100737.91;4960658;28;46259;-71
2022/12/29 10:49:52;;;;;;;;;0.67;0.67;;;;;25.19;38.55;100744.00;4970559;28;45566;-72
2022/12/29 10:52:20;;;;;;;;;0.00;0.00;;;;;25.10;38.41;100726.09;4971910;28;45437;-72
2022/12/29 10:55:00;;;;;;;;;0.67;0.00;;;;;25.17;38.21;100756.09;4961692;28;45539;-72
2022/12/29 10:57:45;;;;;;;;;3.00;0.67;;;;;25.15;38.33;100745.41;4970253;28;45553;-72
2022/12/29 11:00:12;;;;;;;;;0.67;0.67;;;;;25.16;38.20;100741.66;4962834;28;45526;-72
2022/12/29 11:03:09;;;;;;;;;2.00;1.00;;;;;25.16;38.33;100735.34;4952821;28;45468;-72
2022/12/29 11:05:49;;;;;;;;;2.67;0.33;;;;;25.13;38.20;100736.56;4976398;28;45392;-72
2022/12/29 11:08:19;;;;;;;;;1.33;1.00;;;;;25.12;38.04;100737.59;5024559;28;46369;-72
2022/12/29 11:10:46;;;;;;;;;4.33;0.00;;;;;25.14;38.15;100749.13;4971078;28;45623;-72
2022/12/29 11:13:17;;;;;;;;;1.00;1.00;;;;;25.16;38.46;100741.66;4967785;28;45454;-71
2022/12/29 11:15:46;;;;;;;;;0.00;0.00;;;;;25.12;38.19;100746.59;4962193;28;45574;-72
2022/12/29 11:18:26;;;;;;;;;1.00;1.00;;;;;25.09;38.42;100736.09;4959798;28;45653;-72
2022/12/29 11:21:00;;;;;;;;;3.00;1.33;;;;;25.10;37.84;100747.81;4952214;28;45533;-71
2022/12/29 11:23:41;;;;;;;;;1.67;1.67;;;;;25.09;38.15;100755.09;4959653;28;45365;-72
2022/12/29 11:26:14;;;;;;;;;3.67;2.33;;;;;25.08;38.27;100747.97;4967625;28;45511;-71
2022/12/29 11:28:43;;;;;;;;;0.00;0.00;;;;;25.08;37.83;100749.84;4972263;28;46116;-71
2022/12/29 11:31:10;;;;;;;;;0.67;0.67;;;;;25.05;38.12;100755.66;4969202;28;45511;-72
2022/12/29 11:33:38;;;;;;;;;1.33;1.33;;;;;25.02;37.83;100750.56;4978838;27;45676;-71
2022/12/29 11:36:24;;;;;;;;;5.33;2.00;;;;;24.98;37.61;100758.22;4966331;28;45537;-72
2022/12/29 11:38:54;;;;;;;;;1.00;1.00;;;;;24.95;37.93;100756.72;4974223;27;45483;-72
2022/12/29 11:41:22;;;;;;;;;1.00;1.00;;;;;24.94;37.83;100744.16;4964669;28;45477;-71
2022/12/29 11:43:49;;;;;;;;;2.67;1.00;;;;;24.93;38.38;100744.34;4979080;28;45431;-72
2022/12/29 11:46:36;;;;;;;;;1.67;1.67;;;;;24.97;38.34;100741.06;4969030;28;45715;-72
2022/12/29 11:49:03;;;;;;;;;5.00;2.00;;;;;24.96;37.91;100730.38;4968144;28;46263;-73
2022/12/29 11:51:42;;;;;;;;;1.00;1.00;;;;;24.96;38.06;100723.09;4967046;28;46311;-72
2022/12/29 11:54:18;;;;;;;;;2.33;1.33;;;;;24.93;37.96;100706.34;4953607;28;45585;-72
2022/12/29 11:56:44;;;;;;;;;2.33;1.00;;;;;24.88;38.29;100696.00;4972081;28;45672;-72
2022/12/29 11:59:29;;;;;;;;;1.00;1.00;;;;;24.92;37.95;100712.75;4966330;28;46867;-72
2022/12/29 12:01:57;;;;;;;;;2.00;1.00;;;;;24.88;37.90;100715.00;4974231;28;45582;-72
2022/12/29 12:04:28;;;;;;;;;0.67;0.33;;;;;24.88;38.02;100719.59;4956494;28;45550;-73
2022/12/29 12:07:08;;;;;;;;;2.33;1.00;;;;;24.87;38.06;100724.16;4965501;28;45776;-72